createdAt,value
2022-12-14T00:01:51.920Z,12.30
2022-12-14T00:04:20.641Z,13.10
2022-12-14T00:06:48.149Z,10.70
2022-12-14T00:09:16.019Z,12.20
2022-12-14T00:11:43.319Z,11.40
2022-12-14T00:14:10.656Z,12.60
2022-12-14T00:16:38.154Z,10.48
2022-12-14T00:19:05.756Z,10.98
2022-12-14T00:21:33.969Z,13.60
2022-12-14T00:24:01.386Z,11.38
2022-12-14T00:26:31.449Z,12.48
2022-12-14T00:29:01.392Z,11.90
2022-12-14T00:31:29.154Z,11.27
2022-12-14T00:33:56.654Z,10.95
2022-12-14T00:36:24.075Z,11.45
2022-12-14T00:38:51.582Z,14.05
2022-12-14T00:41:18.955Z,9.10
2022-12-14T00:43:49.256Z,11.18
2022-12-14T00:46:17.734Z,12.40
2022-12-14T00:48:45.315Z,11.73
2022-12-14T00:51:14.852Z,13.45
2022-12-14T00:53:44.619Z,10.93
2022-12-14T00:56:12.373Z,12.77
2022-12-14T00:58:41.593Z,11.85
2022-12-14T01:01:15.171Z,9.95
2022-12-14T01:03:43.008Z,9.55
2022-12-14T01:06:19.341Z,9.75
2022-12-14T01:08:47.603Z,11.98
2022-12-14T01:11:18.878Z,10.00
2022-12-14T01:13:49.745Z,8.00
2022-12-14T01:16:18.175Z,10.27
2022-12-14T01:18:45.999Z,9.32
2022-12-14T01:21:31.684Z,9.80
2022-12-14T01:24:01.560Z,8.85
2022-12-14T01:26:31.011Z,9.43
2022-12-14T01:28:59.681Z,7.15
2022-12-14T01:31:39.062Z,8.07
2022-12-14T01:34:08.042Z,7.78
2022-12-14T01:36:36.646Z,8.98
2022-12-14T01:39:09.515Z,9.02
2022-12-14T01:41:39.810Z,10.25
2022-12-14T01:44:10.231Z,7.93
2022-12-14T01:46:52.467Z,8.93
2022-12-14T01:49:26.164Z,9.57
2022-12-14T01:52:04.116Z,7.82
2022-12-14T01:54:35.159Z,8.05
2022-12-14T01:57:02.629Z,11.18
2022-12-14T01:59:38.390Z,9.45
2022-12-14T02:02:08.601Z,9.05
2022-12-14T02:04:42.117Z,10.95
2022-12-14T02:07:10.664Z,7.82
2022-12-14T02:09:41.194Z,7.93
2022-12-14T02:12:20.575Z,7.55
2022-12-14T02:14:48.633Z,7.53
2022-12-14T02:17:17.899Z,11.27
2022-12-14T02:19:46.976Z,7.25
2022-12-14T02:22:39.050Z,9.10
2022-12-14T02:25:33.836Z,9.35
2022-12-14T02:28:10.885Z,9.18
2022-12-14T02:30:40.937Z,9.00
2022-12-14T02:33:27.403Z,8.50
2022-12-14T02:36:09.417Z,9.90
2022-12-14T02:41:38.300Z,8.82
2022-12-14T02:44:08.880Z,10.90
2022-12-14T02:46:50.047Z,15.70
2022-12-14T02:49:40.993Z,9.52
2022-12-14T02:52:20.513Z,10.85
2022-12-14T02:54:55.429Z,11.10
2022-12-14T02:57:33.402Z,11.73
2022-12-14T03:00:02.994Z,14.43
2022-12-14T03:02:35.724Z,7.78
2022-12-14T03:07:41.097Z,7.50
2022-12-14T03:10:40.902Z,12.10
2022-12-14T03:13:36.127Z,8.65
2022-12-14T03:16:11.703Z,10.35
2022-12-14T03:18:57.370Z,10.45
2022-12-14T03:21:49.372Z,12.48
2022-12-14T03:24:24.193Z,11.45
2022-12-14T03:27:07.301Z,12.77
2022-12-14T03:29:40.694Z,14.77
2022-12-14T03:32:16.587Z,15.55
2022-12-14T03:34:55.368Z,13.07
2022-12-14T03:37:34.519Z,15.57
2022-12-14T03:40:01.964Z,17.85
2022-12-14T03:42:59.883Z,15.50
2022-12-14T03:45:37.345Z,16.17
2022-12-14T03:48:10.915Z,20.15
2022-12-14T03:50:41.820Z,20.30
2022-12-14T03:53:19.583Z,19.43
2022-12-14T03:56:03.965Z,21.73
2022-12-14T03:58:57.021Z,27.00
2022-12-14T04:01:46.592Z,27.27
2022-12-14T04:04:27.510Z,32.28
2022-12-14T04:07:01.153Z,29.08
2022-12-14T04:09:52.776Z,32.38
2022-12-14T04:12:51.394Z,39.65
2022-12-14T04:15:40.465Z,35.95
2022-12-14T04:18:32.048Z,38.15
2022-12-14T04:21:15.845Z,42.15
2022-12-14T04:24:08.230Z,39.58
2022-12-14T04:26:40.543Z,44.25
2022-12-14T04:29:33.200Z,40.30
2022-12-14T04:32:15.901Z,39.78
2022-12-14T04:34:50.931Z,42.30
2022-12-14T04:37:22.829Z,42.05
2022-12-14T04:40:25.997Z,43.08
2022-12-14T04:43:00.487Z,38.33
2022-12-14T04:45:35.122Z,46.45
2022-12-14T04:48:45.444Z,44.10
2022-12-14T04:51:40.883Z,42.05
2022-12-14T04:54:26.488Z,41.72
2022-12-14T04:57:03.763Z,43.50
2022-12-14T04:59:32.171Z,44.70
2022-12-14T05:02:19.886Z,43.50
2022-12-14T05:05:04.530Z,50.67
2022-12-14T05:07:37.834Z,47.53
2022-12-14T05:10:35.461Z,43.90
2022-12-14T05:13:19.077Z,37.83
2022-12-14T05:15:50.195Z,42.08
2022-12-14T05:18:18.595Z,42.95
2022-12-14T05:20:49.449Z,48.03
2022-12-14T05:23:17.393Z,49.95
2022-12-14T05:25:45.074Z,57.13
2022-12-14T05:28:16.595Z,44.03
2022-12-14T05:30:48.754Z,48.83
2022-12-14T05:33:19.869Z,50.50
2022-12-14T05:35:47.320Z,45.42
2022-12-14T05:38:14.958Z,43.20
2022-12-14T05:40:43.308Z,47.20
2022-12-14T05:43:13.717Z,47.40
2022-12-14T05:45:41.261Z,46.92
2022-12-14T05:48:08.754Z,46.58
2022-12-14T05:50:36.174Z,41.95
2022-12-14T05:53:03.584Z,41.17
2022-12-14T05:55:30.910Z,45.22
2022-12-14T05:57:58.336Z,47.92
2022-12-14T06:00:25.746Z,43.53
2022-12-14T06:02:55.568Z,47.22
2022-12-14T06:05:23.110Z,45.70
2022-12-14T06:07:50.574Z,45.72
2022-12-14T06:10:18.049Z,44.45
2022-12-14T06:12:45.497Z,44.28
2022-12-14T06:15:14.060Z,47.10
2022-12-14T06:17:45.684Z,42.88
2022-12-14T06:20:14.041Z,48.08
2022-12-14T06:22:47.595Z,49.63
2022-12-14T06:25:16.049Z,46.25
2022-12-14T06:27:43.540Z,46.60
2022-12-14T06:30:12.852Z,48.67
2022-12-14T06:32:40.215Z,47.75
2022-12-14T06:35:08.679Z,48.00
2022-12-14T06:37:36.164Z,52.15
2022-12-14T06:40:04.163Z,55.22
2022-12-14T06:42:31.736Z,50.10
2022-12-14T06:44:59.324Z,49.80
2022-12-14T06:47:28.325Z,46.47
2022-12-14T06:49:55.675Z,58.25
2022-12-14T06:52:26.730Z,48.42
2022-12-14T06:54:54.989Z,54.22
2022-12-14T06:57:22.369Z,47.10
2022-12-14T06:59:49.821Z,50.35
2022-12-14T07:02:17.486Z,46.28
2022-12-14T07:04:45.021Z,52.30
2022-12-14T07:07:12.551Z,51.05
2022-12-14T07:09:40.052Z,51.60
2022-12-14T07:12:07.547Z,52.50
2022-12-14T07:14:35.107Z,51.88
2022-12-14T07:17:02.517Z,49.40
2022-12-14T07:19:29.987Z,54.60
2022-12-14T07:21:57.360Z,46.55
2022-12-14T07:24:24.763Z,48.10
2022-12-14T07:26:56.387Z,47.42
2022-12-14T07:29:23.751Z,46.00
2022-12-14T07:31:51.409Z,51.00
2022-12-14T07:34:19.031Z,54.60
2022-12-14T07:36:50.610Z,58.47
2022-12-14T07:39:18.238Z,54.10
2022-12-14T07:41:47.211Z,57.08
2022-12-14T07:44:24.780Z,60.40
2022-12-14T07:46:53.443Z,53.72
2022-12-14T07:49:21.669Z,56.33
2022-12-14T07:51:49.062Z,56.60
2022-12-14T07:54:16.492Z,54.60
2022-12-14T07:56:44.675Z,57.63
2022-12-14T07:59:19.284Z,54.80
2022-12-14T08:01:47.192Z,55.58
2022-12-14T08:04:19.733Z,58.22
2022-12-14T08:06:48.559Z,50.67
2022-12-14T08:09:16.759Z,49.22
2022-12-14T08:11:45.181Z,51.65
2022-12-14T08:14:17.155Z,55.60
2022-12-14T08:17:02.904Z,48.95
2022-12-14T08:19:30.363Z,45.95
2022-12-14T08:21:57.773Z,56.17
2022-12-14T08:24:28.090Z,50.45
2022-12-14T08:26:55.620Z,55.70
2022-12-14T08:29:23.006Z,50.45
2022-12-14T08:31:50.482Z,50.13
2022-12-14T08:34:22.826Z,53.53
2022-12-14T08:36:53.319Z,50.30
2022-12-14T08:39:21.266Z,48.50
2022-12-14T08:41:48.634Z,48.00
2022-12-14T08:44:17.504Z,47.30
2022-12-14T08:46:44.990Z,42.45
2022-12-14T08:49:12.558Z,42.08
2022-12-14T08:51:40.040Z,51.22
2022-12-14T08:54:07.530Z,46.17
2022-12-14T08:56:35.025Z,44.63
2022-12-14T08:59:02.345Z,51.05
2022-12-14T09:01:34.660Z,42.40
2022-12-14T09:04:05.354Z,43.45
2022-12-14T09:06:35.272Z,39.40
2022-12-14T09:09:03.816Z,42.50
2022-12-14T09:11:31.303Z,40.17
2022-12-14T09:13:58.730Z,44.22
2022-12-14T09:16:29.060Z,45.72
2022-12-14T09:18:56.602Z,43.38
2022-12-14T09:21:24.187Z,46.88
2022-12-14T09:23:57.378Z,44.65
2022-12-14T09:26:27.705Z,45.40
2022-12-14T09:28:56.819Z,46.33
2022-12-14T09:31:26.291Z,43.92
2022-12-14T09:33:55.070Z,39.25
2022-12-14T09:36:27.730Z,48.47
2022-12-14T09:38:56.664Z,41.83
2022-12-14T09:41:36.124Z,43.30
2022-12-14T09:44:19.252Z,41.22
2022-12-14T09:47:17.177Z,43.25
2022-12-14T09:50:07.217Z,43.35
2022-12-14T09:52:37.096Z,44.13
2022-12-14T09:55:16.605Z,38.80
2022-12-14T09:58:01.568Z,40.03
2022-12-14T10:00:36.424Z,39.63
2022-12-14T10:03:34.332Z,38.08
2022-12-14T10:06:59.462Z,37.70
2022-12-14T10:09:35.892Z,39.55
2022-12-14T10:12:11.836Z,36.75
2022-12-14T10:15:07.201Z,38.03
2022-12-14T10:18:22.355Z,37.33
2022-12-14T10:21:14.736Z,40.75
2022-12-14T10:24:08.520Z,42.35
2022-12-14T10:26:42.745Z,41.80
2022-12-14T10:29:28.832Z,39.88
2022-12-14T10:32:05.632Z,38.72
2022-12-14T10:34:34.872Z,34.00
2022-12-14T10:37:14.202Z,36.25
2022-12-14T10:40:02.571Z,38.92
2022-12-14T10:42:33.517Z,37.78
2022-12-14T10:45:39.083Z,31.92
2022-12-14T10:48:25.773Z,37.38
2022-12-14T10:51:25.710Z,32.17
2022-12-14T10:54:18.869Z,33.03
2022-12-14T10:56:50.637Z,36.70
2022-12-14T10:59:18.234Z,34.70
2022-12-14T11:01:48.164Z,32.03
2022-12-14T11:04:46.804Z,36.13
2022-12-14T11:07:16.415Z,34.55
2022-12-14T11:09:44.201Z,32.88
2022-12-14T11:12:23.102Z,35.88
2022-12-14T11:15:00.766Z,34.03
2022-12-14T11:17:36.469Z,29.67
2022-12-14T11:20:27.714Z,27.48
2022-12-14T11:23:06.981Z,25.95
2022-12-14T11:25:47.242Z,24.30
2022-12-14T11:28:37.202Z,31.70
2022-12-14T11:31:15.376Z,26.70
2022-12-14T11:33:49.979Z,23.23
2022-12-14T11:36:33.315Z,25.38
2022-12-14T11:39:22.281Z,24.67
2022-12-14T11:41:59.594Z,22.65
2022-12-14T11:44:36.155Z,23.05
2022-12-14T11:47:08.610Z,28.02
2022-12-14T11:49:38.995Z,35.00
2022-12-14T11:52:15.356Z,26.50
2022-12-14T11:54:51.946Z,23.92
2022-12-14T11:57:29.988Z,25.20
2022-12-14T12:00:00.672Z,24.85
2022-12-14T12:02:48.001Z,22.33
2022-12-14T12:05:18.905Z,23.30
2022-12-14T12:07:49.375Z,22.48
2022-12-14T12:10:22.099Z,25.90
2022-12-14T12:12:54.460Z,24.08
2022-12-14T12:15:41.247Z,24.92
2022-12-14T12:18:31.503Z,27.23
2022-12-14T12:21:08.432Z,26.30
2022-12-14T12:23:43.775Z,27.30
2022-12-14T12:26:30.506Z,23.88
2022-12-14T12:29:15.524Z,27.35
2022-12-14T12:31:53.647Z,23.73
2022-12-14T12:34:29.352Z,21.48
2022-12-14T12:37:25.860Z,23.10
2022-12-14T12:39:55.617Z,19.20
2022-12-14T12:42:34.493Z,20.95
2022-12-14T12:45:14.539Z,19.15
2022-12-14T12:47:49.993Z,21.83
2022-12-14T12:50:21.628Z,20.52
2022-12-14T12:53:02.760Z,23.27
2022-12-14T12:58:05.074Z,22.10
2022-12-14T13:00:37.144Z,22.55
2022-12-14T13:03:20.453Z,25.20
2022-12-14T13:05:54.086Z,24.30
2022-12-14T13:08:32.020Z,20.33
2022-12-14T13:14:14.568Z,22.60
2022-12-14T13:16:43.086Z,26.90
2022-12-14T13:19:51.089Z,28.02
2022-12-14T13:22:27.894Z,24.85
2022-12-14T13:24:59.716Z,25.30
2022-12-14T13:27:36.917Z,32.22
2022-12-14T13:30:12.053Z,26.92
2022-12-14T13:33:13.367Z,31.20
2022-12-14T13:35:46.656Z,35.08
2022-12-14T13:38:17.226Z,30.30
2022-12-14T13:40:44.574Z,30.58
2022-12-14T13:43:17.597Z,28.98
2022-12-14T13:45:49.991Z,31.00
2022-12-14T13:48:25.531Z,30.08
2022-12-14T13:51:01.874Z,32.53
2022-12-14T13:53:55.364Z,27.65
2022-12-14T13:56:32.614Z,28.45
2022-12-14T13:59:04.947Z,29.58
2022-12-14T14:01:48.034Z,28.48
2022-12-14T14:04:30.014Z,28.25
2022-12-14T14:07:23.399Z,25.83
2022-12-14T14:09:57.552Z,26.70
2022-12-14T14:12:43.229Z,24.58
2022-12-14T14:15:26.644Z,23.92
2022-12-14T14:17:55.449Z,23.08
2022-12-14T14:20:31.813Z,29.13
2022-12-14T14:23:14.362Z,25.02
2022-12-14T14:25:52.981Z,27.63
2022-12-14T14:28:27.508Z,23.30
2022-12-14T14:30:59.655Z,26.58
2022-12-14T14:33:59.596Z,24.30
2022-12-14T14:36:36.173Z,23.70
2022-12-14T14:39:24.502Z,21.83
2022-12-14T14:41:55.191Z,22.60
2022-12-14T14:44:51.095Z,25.85
2022-12-14T14:47:35.800Z,24.40
2022-12-14T14:50:18.214Z,25.50
2022-12-14T14:52:58.632Z,24.77
2022-12-14T14:58:25.065Z,28.48
2022-12-14T15:01:06.226Z,26.13
2022-12-14T15:03:52.460Z,24.93
2022-12-14T15:06:28.872Z,31.08
2022-12-14T15:09:27.232Z,28.83
2022-12-14T15:12:01.265Z,30.40
2022-12-14T15:14:35.597Z,29.55
2022-12-14T15:17:14.905Z,26.77
2022-12-14T15:19:50.637Z,27.90
2022-12-14T15:22:21.567Z,23.63
2022-12-14T15:24:54.454Z,21.17
2022-12-14T15:27:37.171Z,16.38
2022-12-14T15:30:11.530Z,13.60
2022-12-14T15:32:48.019Z,15.30
2022-12-14T15:35:18.697Z,19.20
2022-12-14T15:37:54.743Z,15.68
2022-12-14T15:40:27.455Z,18.30
2022-12-14T15:42:57.307Z,14.23
2022-12-14T15:45:34.815Z,15.52
2022-12-14T15:48:14.269Z,14.40
2022-12-14T15:50:46.081Z,15.05
2022-12-14T15:53:41.071Z,13.95
2022-12-14T15:56:27.359Z,18.88
2022-12-14T15:58:57.667Z,24.13
2022-12-14T16:01:32.693Z,31.90
2022-12-14T16:04:05.175Z,34.55
2022-12-14T16:06:40.651Z,31.08
2022-12-14T16:09:10.931Z,32.97
2022-12-14T16:11:49.565Z,29.20
2022-12-14T16:14:31.348Z,37.15
2022-12-14T16:17:02.096Z,33.60
2022-12-14T16:19:57.429Z,36.50
2022-12-14T16:22:25.684Z,38.40
2022-12-14T16:25:08.408Z,32.97
2022-12-14T16:27:40.614Z,42.72
2022-12-14T16:30:19.209Z,36.60
2022-12-14T16:32:50.051Z,36.13
2022-12-14T16:35:26.385Z,34.30
2022-12-14T16:37:58.003Z,33.45
2022-12-14T16:40:33.612Z,36.92
2022-12-14T16:43:02.641Z,36.17
2022-12-14T16:45:36.371Z,34.40
2022-12-14T16:48:18.291Z,46.85
2022-12-14T16:51:01.771Z,36.35
2022-12-14T16:53:51.224Z,37.63
2022-12-14T16:56:24.232Z,34.55
2022-12-14T16:59:06.388Z,34.53
2022-12-14T17:01:46.882Z,35.63
2022-12-14T17:04:20.080Z,36.33
2022-12-14T17:06:54.036Z,35.53
2022-12-14T17:09:28.487Z,37.67
2022-12-14T17:12:00.108Z,37.13
2022-12-14T17:14:27.908Z,36.53
2022-12-14T17:17:01.136Z,40.50
2022-12-14T17:19:35.619Z,36.83
2022-12-14T17:22:05.360Z,35.83
2022-12-14T17:24:36.042Z,34.97
2022-12-14T17:27:04.371Z,40.17
2022-12-14T17:29:33.242Z,38.65
2022-12-14T17:32:03.557Z,37.22
2022-12-14T17:34:31.175Z,47.35
2022-12-14T17:36:58.649Z,41.20
2022-12-14T17:39:28.646Z,38.15
2022-12-14T17:41:56.076Z,37.50
2022-12-14T17:44:25.120Z,41.50
2022-12-14T17:46:52.581Z,40.33
2022-12-14T17:49:34.108Z,41.10
2022-12-14T17:52:07.350Z,39.03
2022-12-14T17:54:37.470Z,41.25
2022-12-14T17:57:05.614Z,39.42
2022-12-14T17:59:33.036Z,41.78
2022-12-14T18:02:00.575Z,42.67
2022-12-14T18:04:28.240Z,41.33
2022-12-14T18:06:55.612Z,40.63
2022-12-14T18:09:23.032Z,41.42
2022-12-14T18:12:21.586Z,43.78
2022-12-14T18:14:38.116Z,43.15
2022-12-14T18:17:11.033Z,43.38
2022-12-14T18:19:39.026Z,43.42
2022-12-14T18:22:07.610Z,41.47
2022-12-14T18:24:35.159Z,45.28
2022-12-14T18:27:02.505Z,39.10
2022-12-14T18:29:29.932Z,44.00
2022-12-14T18:31:57.486Z,41.97
2022-12-14T18:34:24.928Z,43.10
2022-12-14T18:36:52.527Z,44.35
2022-12-14T18:39:19.945Z,44.13
2022-12-14T18:41:50.187Z,44.30
2022-12-14T18:44:17.635Z,40.25
2022-12-14T18:46:45.089Z,43.20
2022-12-14T18:51:44.508Z,43.28
2022-12-14T18:54:11.914Z,41.28
2022-12-14T18:56:42.043Z,39.88
2022-12-14T18:59:09.822Z,43.35
2022-12-14T19:01:37.323Z,47.90
2022-12-14T19:04:05.755Z,46.13
2022-12-14T19:06:44.093Z,45.20
2022-12-14T19:09:14.145Z,44.30
2022-12-14T19:11:44.651Z,42.42
2022-12-14T19:14:12.227Z,40.80
2022-12-14T19:16:39.769Z,42.10
2022-12-14T19:19:07.278Z,47.63
2022-12-14T19:21:34.625Z,43.45
2022-12-14T19:24:02.068Z,47.03
2022-12-14T19:26:30.688Z,47.78
2022-12-14T19:28:58.555Z,46.13
2022-12-14T19:31:26.552Z,48.97
2022-12-14T19:33:54.044Z,48.95
2022-12-14T19:36:24.858Z,45.35
2022-12-14T19:38:52.233Z,49.92
2022-12-14T19:41:21.342Z,46.13
2022-12-14T19:43:49.025Z,49.38
2022-12-14T19:46:18.035Z,47.95
2022-12-14T19:48:45.871Z,46.33
2022-12-14T19:51:14.295Z,47.78
2022-12-14T19:53:43.336Z,49.00
2022-12-14T19:56:13.942Z,44.78
2022-12-14T19:58:41.563Z,44.75
2022-12-14T20:01:14.058Z,47.20
2022-12-14T20:03:41.914Z,48.13
2022-12-14T20:06:09.519Z,50.95
2022-12-14T20:08:37.076Z,54.17
2022-12-14T20:11:10.048Z,48.22
2022-12-14T20:13:38.346Z,47.33
2022-12-14T20:16:06.214Z,49.20
2022-12-14T20:18:33.826Z,47.92
2022-12-14T20:21:06.773Z,51.20
2022-12-14T20:23:35.421Z,49.47
2022-12-14T20:26:16.143Z,47.30
2022-12-14T20:28:46.557Z,49.88
2022-12-14T20:31:17.178Z,54.13
2022-12-14T20:33:45.233Z,49.33
2022-12-14T20:36:12.749Z,46.80
2022-12-14T20:38:40.171Z,48.13
2022-12-14T20:41:10.435Z,51.30
2022-12-14T20:43:40.272Z,57.15
2022-12-14T20:46:24.937Z,48.25
2022-12-14T20:48:52.591Z,49.25
2022-12-14T20:51:20.545Z,45.67
2022-12-14T20:53:49.304Z,50.85
2022-12-14T20:56:16.787Z,48.95
2022-12-14T20:58:50.461Z,49.50
2022-12-14T21:01:19.192Z,43.78
2022-12-14T21:03:48.416Z,33.00
2022-12-14T21:06:20.159Z,36.30
2022-12-14T21:09:10.054Z,36.33
2022-12-14T21:12:06.476Z,32.05
2022-12-14T21:14:37.489Z,34.63
2022-12-14T21:17:05.293Z,29.73
2022-12-14T21:19:35.347Z,29.88
2022-12-14T21:22:04.940Z,22.70
2022-12-14T21:25:01.645Z,20.33
2022-12-14T21:27:25.663Z,21.38
2022-12-14T21:29:53.844Z,25.90
2022-12-14T21:32:22.285Z,23.08
2022-12-14T21:34:50.007Z,25.25
2022-12-14T21:37:17.902Z,28.58
2022-12-14T21:39:52.386Z,38.45
2022-12-14T21:42:26.542Z,33.15
2022-12-14T21:44:55.289Z,39.55
2022-12-14T21:47:29.089Z,37.25
2022-12-14T21:49:57.135Z,45.67
2022-12-14T21:52:28.922Z,42.38
2022-12-14T21:54:58.589Z,43.25
2022-12-14T21:57:50.518Z,43.45
2022-12-14T22:00:19.171Z,45.40
2022-12-14T22:02:46.700Z,44.70
2022-12-14T22:05:14.246Z,43.88
2022-12-14T22:07:41.943Z,47.72
2022-12-14T22:10:09.507Z,50.53
2022-12-14T22:12:36.857Z,46.33
2022-12-14T22:15:04.399Z,46.40
2022-12-14T22:17:34.719Z,50.72
2022-12-14T22:20:02.383Z,44.17
2022-12-14T22:22:29.778Z,46.42
2022-12-14T22:24:57.190Z,50.17
2022-12-14T22:27:24.442Z,51.33
2022-12-14T22:29:51.809Z,47.20
2022-12-14T22:32:19.318Z,52.90
2022-12-14T22:34:46.775Z,51.30
2022-12-14T22:37:16.764Z,52.58
2022-12-14T22:39:44.625Z,47.95
2022-12-14T22:42:16.214Z,49.92
2022-12-14T22:44:43.638Z,48.58
2022-12-14T22:47:10.997Z,53.33
2022-12-14T22:49:38.418Z,50.83
2022-12-14T22:52:05.752Z,52.25
2022-12-14T22:54:33.088Z,51.03
2022-12-14T22:57:04.147Z,50.35
2022-12-14T22:59:39.302Z,50.28
2022-12-14T23:02:06.844Z,50.70
2022-12-14T23:04:36.712Z,47.67
2022-12-14T23:07:04.312Z,50.55
2022-12-14T23:09:50.178Z,50.47
2022-12-14T23:12:36.030Z,55.55
2022-12-14T23:15:22.435Z,49.58
2022-12-14T23:18:08.425Z,52.90
2022-12-14T23:20:57.402Z,50.88
2022-12-14T23:23:43.243Z,48.70
2022-12-14T23:26:29.267Z,53.30
2022-12-14T23:29:14.951Z,50.15
2022-12-14T23:32:00.757Z,53.03
2022-12-14T23:34:47.883Z,49.55
2022-12-14T23:37:34.373Z,48.53
2022-12-14T23:40:20.534Z,52.58
2022-12-14T23:43:06.648Z,47.78
2022-12-14T23:45:52.707Z,46.70
2022-12-14T23:48:38.572Z,50.88
2022-12-14T23:51:25.062Z,40.28
2022-12-14T23:54:10.993Z,43.15
2022-12-14T23:56:57.046Z,44.03
2022-12-14T23:59:43.171Z,39.33
